sensor_id;sensor_type;location;lat;lon;timestamp;temperature;humidity
15355;DHT22;7777;52.254;9.618;2024-03-17T00:02:23;6.10;99.90
15355;DHT22;7777;52.254;9.618;2024-03-17T00:04:48;6.10;99.90
15355;DHT22;7777;52.254;9.618;2024-03-17T00:07:14;6.10;99.90
15355;DHT22;7777;52.254;9.618;2024-03-17T00:09:41;6.10;99.90
15355;DHT22;7777;52.254;9.618;2024-03-17T00:12:08;6.10;99.90
15355;DHT22;7777;52.254;9.618;2024-03-17T00:14:34;6.10;99.90
15355;DHT22;7777;52.254;9.618;2024-03-17T00:17:02;6.10;99.90
15355;DHT22;7777;52.254;9.618;2024-03-17T00:19:28;6.10;99.90
15355;DHT22;7777;52.254;9.618;2024-03-17T00:21:54;6.00;99.90
15355;DHT22;7777;52.254;9.618;2024-03-17T00:24:20;6.00;99.90
15355;DHT22;7777;52.254;9.618;2024-03-17T00:26:46;6.00;99.90
15355;DHT22;7777;52.254;9.618;2024-03-17T00:29:13;6.00;99.90
15355;DHT22;7777;52.254;9.618;2024-03-17T00:31:40;6.00;99.90
15355;DHT22;7777;52.254;9.618;2024-03-17T00:34:06;5.90;99.90
15355;DHT22;7777;52.254;9.618;2024-03-17T00:36:32;5.90;99.90
15355;DHT22;7777;52.254;9.618;2024-03-17T00:38:59;5.90;99.90
15355;DHT22;7777;52.254;9.618;2024-03-17T00:41:25;5.90;99.90
15355;DHT22;7777;52.254;9.618;2024-03-17T00:43:52;5.80;99.90
15355;DHT22;7777;52.254;9.618;2024-03-17T00:46:21;5.80;99.90
15355;DHT22;7777;52.254;9.618;2024-03-17T00:48:48;5.80;99.90
15355;DHT22;7777;52.254;9.618;2024-03-17T00:51:14;5.70;99.90
15355;DHT22;7777;52.254;9.618;2024-03-17T00:53:41;5.60;99.90
15355;DHT22;7777;52.254;9.618;2024-03-17T00:56:07;5.60;99.90
15355;DHT22;7777;52.254;9.618;2024-03-17T00:58:32;5.50;99.90
15355;DHT22;7777;52.254;9.618;2024-03-17T01:00:58;5.50;99.90
15355;DHT22;7777;52.254;9.618;2024-03-17T01:03:24;5.40;99.90
15355;DHT22;7777;52.254;9.618;2024-03-17T01:05:50;5.40;99.90
15355;DHT22;7777;52.254;9.618;2024-03-17T01:08:18;5.40;99.90
15355;DHT22;7777;52.254;9.618;2024-03-17T01:10:45;5.30;99.90
15355;DHT22;7777;52.254;9.618;2024-03-17T01:13:15;5.30;99.90
15355;DHT22;7777;52.254;9.618;2024-03-17T01:15:41;5.20;99.90
15355;DHT22;7777;52.254;9.618;2024-03-17T01:18:08;5.20;99.90
15355;DHT22;7777;52.254;9.618;2024-03-17T01:20:37;5.20;99.90
15355;DHT22;7777;52.254;9.618;2024-03-17T01:23:04;5.20;99.90
15355;DHT22;7777;52.254;9.618;2024-03-17T01:25:31;5.10;99.90
15355;DHT22;7777;52.254;9.618;2024-03-17T01:28:01;5.10;99.90
15355;DHT22;7777;52.254;9.618;2024-03-17T01:30:27;5.10;99.90
15355;DHT22;7777;52.254;9.618;2024-03-17T01:32:53;5.00;99.90
15355;DHT22;7777;52.254;9.618;2024-03-17T01:35:19;5.00;99.90
15355;DHT22;7777;52.254;9.618;2024-03-17T01:37:45;5.00;99.90
15355;DHT22;7777;52.254;9.618;2024-03-17T01:40:12;5.00;99.90
15355;DHT22;7777;52.254;9.618;2024-03-17T01:42:41;5.00;99.90
15355;DHT22;7777;52.254;9.618;2024-03-17T01:47:42;4.90;99.90
15355;DHT22;7777;52.254;9.618;2024-03-17T01:50:09;4.90;99.90
15355;DHT22;7777;52.254;9.618;2024-03-17T01:52:37;4.80;99.90
15355;DHT22;7777;52.254;9.618;2024-03-17T01:55:04;4.80;99.90
15355;DHT22;7777;52.254;9.618;2024-03-17T01:57:31;4.80;99.90
15355;DHT22;7777;52.254;9.618;2024-03-17T01:59:57;4.70;99.90
15355;DHT22;7777;52.254;9.618;2024-03-17T02:02:24;4.70;99.90
15355;DHT22;7777;52.254;9.618;2024-03-17T02:04:50;4.60;99.90
15355;DHT22;7777;52.254;9.618;2024-03-17T02:07:16;4.60;99.90
15355;DHT22;7777;52.254;9.618;2024-03-17T02:09:42;4.60;99.90
15355;DHT22;7777;52.254;9.618;2024-03-17T02:12:08;4.60;99.90
15355;DHT22;7777;52.254;9.618;2024-03-17T02:14:35;4.50;99.90
15355;DHT22;7777;52.254;9.618;2024-03-17T02:17:01;4.50;99.90
15355;DHT22;7777;52.254;9.618;2024-03-17T02:19:27;4.50;99.90
15355;DHT22;7777;52.254;9.618;2024-03-17T02:21:53;4.40;99.90
15355;DHT22;7777;52.254;9.618;2024-03-17T02:24:19;4.40;99.90
15355;DHT22;7777;52.254;9.618;2024-03-17T02:26:45;4.40;99.90
15355;DHT22;7777;52.254;9.618;2024-03-17T02:29:12;4.40;99.90
15355;DHT22;7777;52.254;9.618;2024-03-17T02:31:38;4.30;99.90
15355;DHT22;7777;52.254;9.618;2024-03-17T02:34:04;4.30;99.90
15355;DHT22;7777;52.254;9.618;2024-03-17T02:36:29;4.30;99.90
15355;DHT22;7777;52.254;9.618;2024-03-17T02:38:55;4.30;99.90
15355;DHT22;7777;52.254;9.618;2024-03-17T02:41:43;4.20;99.90
15355;DHT22;7777;52.254;9.618;2024-03-17T02:44:09;4.20;99.90
15355;DHT22;7777;52.254;9.618;2024-03-17T02:46:36;4.20;99.90
15355;DHT22;7777;52.254;9.618;2024-03-17T02:49:03;4.20;99.90
15355;DHT22;7777;52.254;9.618;2024-03-17T02:51:29;4.20;99.90
15355;DHT22;7777;52.254;9.618;2024-03-17T02:53:55;4.10;99.90
15355;DHT22;7777;52.254;9.618;2024-03-17T02:56:20;4.10;99.90
15355;DHT22;7777;52.254;9.618;2024-03-17T02:58:47;4.10;99.90
15355;DHT22;7777;52.254;9.618;2024-03-17T03:01:14;4.10;99.90
15355;DHT22;7777;52.254;9.618;2024-03-17T03:03:41;4.00;99.90
15355;DHT22;7777;52.254;9.618;2024-03-17T03:06:07;4.00;99.90
15355;DHT22;7777;52.254;9.618;2024-03-17T03:08:35;4.00;99.90
15355;DHT22;7777;52.254;9.618;2024-03-17T03:11:10;4.00;99.90
15355;DHT22;7777;52.254;9.618;2024-03-17T03:13:43;4.00;99.90
15355;DHT22;7777;52.254;9.618;2024-03-17T03:16:11;3.90;99.90
15355;DHT22;7777;52.254;9.618;2024-03-17T03:18:38;3.90;99.90
15355;DHT22;7777;52.254;9.618;2024-03-17T03:21:04;3.90;99.90
15355;DHT22;7777;52.254;9.618;2024-03-17T03:23:31;3.90;99.90
15355;DHT22;7777;52.254;9.618;2024-03-17T03:26:01;3.80;99.90
15355;DHT22;7777;52.254;9.618;2024-03-17T03:28:29;3.80;99.90
15355;DHT22;7777;52.254;9.618;2024-03-17T03:30:56;3.80;99.90
15355;DHT22;7777;52.254;9.618;2024-03-17T03:33:22;3.80;99.90
15355;DHT22;7777;52.254;9.618;2024-03-17T03:35:48;3.80;99.90
15355;DHT22;7777;52.254;9.618;2024-03-17T03:38:15;3.70;99.90
15355;DHT22;7777;52.254;9.618;2024-03-17T03:40:42;3.70;99.90
15355;DHT22;7777;52.254;9.618;2024-03-17T03:43:09;3.70;99.90
15355;DHT22;7777;52.254;9.618;2024-03-17T03:45:35;3.70;99.90
15355;DHT22;7777;52.254;9.618;2024-03-17T03:48:02;3.60;99.90
15355;DHT22;7777;52.254;9.618;2024-03-17T03:50:28;3.60;99.90
15355;DHT22;7777;52.254;9.618;2024-03-17T03:52:54;3.60;99.90
15355;DHT22;7777;52.254;9.618;2024-03-17T03:55:20;3.50;99.90
15355;DHT22;7777;52.254;9.618;2024-03-17T03:57:46;3.50;99.90
15355;DHT22;7777;52.254;9.618;2024-03-17T04:00:20;3.50;99.90
15355;DHT22;7777;52.254;9.618;2024-03-17T04:02:50;3.50;99.90
15355;DHT22;7777;52.254;9.618;2024-03-17T04:05:18;3.40;99.90
15355;DHT22;7777;52.254;9.618;2024-03-17T04:07:45;3.40;99.90
15355;DHT22;7777;52.254;9.618;2024-03-17T04:10:14;3.40;99.90
15355;DHT22;7777;52.254;9.618;2024-03-17T04:12:40;3.40;99.90
15355;DHT22;7777;52.254;9.618;2024-03-17T04:15:06;3.40;99.90
15355;DHT22;7777;52.254;9.618;2024-03-17T04:17:33;3.40;99.90
15355;DHT22;7777;52.254;9.618;2024-03-17T04:19:59;3.40;99.90
15355;DHT22;7777;52.254;9.618;2024-03-17T04:22:25;3.40;99.90
15355;DHT22;7777;52.254;9.618;2024-03-17T04:24:52;3.40;99.90
15355;DHT22;7777;52.254;9.618;2024-03-17T04:27:22;3.50;99.90
15355;DHT22;7777;52.254;9.618;2024-03-17T04:30:16;3.50;99.90
15355;DHT22;7777;52.254;9.618;2024-03-17T04:32:42;3.50;99.90
15355;DHT22;7777;52.254;9.618;2024-03-17T04:35:08;3.50;99.90
15355;DHT22;7777;52.254;9.618;2024-03-17T04:37:34;3.50;99.90
15355;DHT22;7777;52.254;9.618;2024-03-17T04:40:04;3.60;99.90
15355;DHT22;7777;52.254;9.618;2024-03-17T04:42:34;3.60;99.90
15355;DHT22;7777;52.254;9.618;2024-03-17T04:45:00;3.70;99.90
15355;DHT22;7777;52.254;9.618;2024-03-17T04:47:26;3.70;99.90
15355;DHT22;7777;52.254;9.618;2024-03-17T04:49:52;3.70;99.90
15355;DHT22;7777;52.254;9.618;2024-03-17T04:52:18;3.70;99.90
15355;DHT22;7777;52.254;9.618;2024-03-17T04:54:43;3.70;99.90
15355;DHT22;7777;52.254;9.618;2024-03-17T04:57:10;3.80;99.90
15355;DHT22;7777;52.254;9.618;2024-03-17T04:59:35;3.80;99.90
15355;DHT22;7777;52.254;9.618;2024-03-17T05:02:01;3.80;99.90
15355;DHT22;7777;52.254;9.618;2024-03-17T05:04:29;3.80;99.90
15355;DHT22;7777;52.254;9.618;2024-03-17T05:06:55;3.90;99.90
15355;DHT22;7777;52.254;9.618;2024-03-17T05:09:23;3.90;99.90
15355;DHT22;7777;52.254;9.618;2024-03-17T05:11:50;3.90;99.90
15355;DHT22;7777;52.254;9.618;2024-03-17T05:14:19;4.00;99.90
15355;DHT22;7777;52.254;9.618;2024-03-17T05:16:52;3.90;99.90
15355;DHT22;7777;52.254;9.618;2024-03-17T05:19:18;4.00;99.90
15355;DHT22;7777;52.254;9.618;2024-03-17T05:21:45;4.00;99.90
15355;DHT22;7777;52.254;9.618;2024-03-17T05:24:12;4.00;99.90
15355;DHT22;7777;52.254;9.618;2024-03-17T05:26:38;4.00;99.90
15355;DHT22;7777;52.254;9.618;2024-03-17T05:29:04;4.00;99.90
15355;DHT22;7777;52.254;9.618;2024-03-17T05:31:30;4.00;99.90
15355;DHT22;7777;52.254;9.618;2024-03-17T05:33:57;4.00;99.90
15355;DHT22;7777;52.254;9.618;2024-03-17T05:36:23;4.00;99.90
15355;DHT22;7777;52.254;9.618;2024-03-17T05:38:49;4.00;99.90
15355;DHT22;7777;52.254;9.618;2024-03-17T05:41:14;4.00;99.90
15355;DHT22;7777;52.254;9.618;2024-03-17T05:43:40;4.00;99.90
15355;DHT22;7777;52.254;9.618;2024-03-17T05:46:07;4.10;99.90
15355;DHT22;7777;52.254;9.618;2024-03-17T05:48:35;4.10;99.90
15355;DHT22;7777;52.254;9.618;2024-03-17T05:51:10;4.10;99.90
15355;DHT22;7777;52.254;9.618;2024-03-17T05:53:38;4.10;99.90
15355;DHT22;7777;52.254;9.618;2024-03-17T05:56:06;4.10;99.90
15355;DHT22;7777;52.254;9.618;2024-03-17T05:58:35;4.20;99.90
15355;DHT22;7777;52.254;9.618;2024-03-17T06:01:04;4.20;99.90
15355;DHT22;7777;52.254;9.618;2024-03-17T06:03:30;4.20;99.90
15355;DHT22;7777;52.254;9.618;2024-03-17T06:05:58;4.20;99.90
15355;DHT22;7777;52.254;9.618;2024-03-17T06:08:24;4.20;99.90
15355;DHT22;7777;52.254;9.618;2024-03-17T06:10:50;4.30;99.90
15355;DHT22;7777;52.254;9.618;2024-03-17T06:13:16;4.30;99.90
15355;DHT22;7777;52.254;9.618;2024-03-17T06:15:43;4.30;99.90
15355;DHT22;7777;52.254;9.618;2024-03-17T06:18:12;4.40;99.90
15355;DHT22;7777;52.254;9.618;2024-03-17T06:20:44;4.40;99.90
15355;DHT22;7777;52.254;9.618;2024-03-17T06:23:11;4.40;99.90
15355;DHT22;7777;52.254;9.618;2024-03-17T06:25:43;4.40;99.90
15355;DHT22;7777;52.254;9.618;2024-03-17T06:28:10;4.50;99.90
15355;DHT22;7777;52.254;9.618;2024-03-17T06:30:45;4.50;99.90
15355;DHT22;7777;52.254;9.618;2024-03-17T06:33:20;4.50;99.90
15355;DHT22;7777;52.254;9.618;2024-03-17T06:35:47;4.60;99.90
15355;DHT22;7777;52.254;9.618;2024-03-17T06:38:14;4.60;99.90
15355;DHT22;7777;52.254;9.618;2024-03-17T06:40:41;4.70;99.90
15355;DHT22;7777;52.254;9.618;2024-03-17T06:43:07;4.70;99.90
15355;DHT22;7777;52.254;9.618;2024-03-17T06:45:33;4.80;99.90
15355;DHT22;7777;52.254;9.618;2024-03-17T06:47:59;4.80;99.90
15355;DHT22;7777;52.254;9.618;2024-03-17T06:50:25;4.80;99.90
15355;DHT22;7777;52.254;9.618;2024-03-17T06:52:53;4.90;99.90
15355;DHT22;7777;52.254;9.618;2024-03-17T06:55:19;4.90;99.90
15355;DHT22;7777;52.254;9.618;2024-03-17T06:57:46;5.00;99.90
15355;DHT22;7777;52.254;9.618;2024-03-17T07:00:13;5.00;99.90
15355;DHT22;7777;52.254;9.618;2024-03-17T07:02:44;5.10;99.90
15355;DHT22;7777;52.254;9.618;2024-03-17T07:05:13;5.10;99.90
15355;DHT22;7777;52.254;9.618;2024-03-17T07:07:40;5.10;99.90
15355;DHT22;7777;52.254;9.618;2024-03-17T07:10:07;5.20;99.90
15355;DHT22;7777;52.254;9.618;2024-03-17T07:12:34;5.20;99.90
15355;DHT22;7777;52.254;9.618;2024-03-17T07:15:01;5.30;99.90
15355;DHT22;7777;52.254;9.618;2024-03-17T07:17:26;5.30;99.90
15355;DHT22;7777;52.254;9.618;2024-03-17T07:19:52;5.30;99.90
15355;DHT22;7777;52.254;9.618;2024-03-17T07:22:18;5.40;99.90
15355;DHT22;7777;52.254;9.618;2024-03-17T07:24:47;5.40;99.90
15355;DHT22;7777;52.254;9.618;2024-03-17T07:27:13;5.40;99.90
15355;DHT22;7777;52.254;9.618;2024-03-17T07:29:40;5.50;99.90
15355;DHT22;7777;52.254;9.618;2024-03-17T07:32:06;5.50;99.90
15355;DHT22;7777;52.254;9.618;2024-03-17T07:34:32;5.60;99.90
15355;DHT22;7777;52.254;9.618;2024-03-17T07:36:58;5.70;99.90
15355;DHT22;7777;52.254;9.618;2024-03-17T07:39:31;5.70;99.90
15355;DHT22;7777;52.254;9.618;2024-03-17T07:41:58;5.80;99.90
15355;DHT22;7777;52.254;9.618;2024-03-17T07:44:25;5.80;99.90
15355;DHT22;7777;52.254;9.618;2024-03-17T07:46:54;5.90;99.90
15355;DHT22;7777;52.254;9.618;2024-03-17T07:49:20;6.00;99.90
15355;DHT22;7777;52.254;9.618;2024-03-17T07:51:48;6.10;99.90
15355;DHT22;7777;52.254;9.618;2024-03-17T07:54:14;6.10;99.90
15355;DHT22;7777;52.254;9.618;2024-03-17T07:56:41;6.20;99.90
15355;DHT22;7777;52.254;9.618;2024-03-17T07:59:07;6.20;99.90
15355;DHT22;7777;52.254;9.618;2024-03-17T08:01:38;6.30;99.90
15355;DHT22;7777;52.254;9.618;2024-03-17T08:04:04;6.40;99.90
15355;DHT22;7777;52.254;9.618;2024-03-17T08:06:30;6.50;99.90
15355;DHT22;7777;52.254;9.618;2024-03-17T08:08:56;6.50;99.90
15355;DHT22;7777;52.254;9.618;2024-03-17T08:11:22;6.60;99.90
15355;DHT22;7777;52.254;9.618;2024-03-17T08:13:50;6.70;99.90
15355;DHT22;7777;52.254;9.618;2024-03-17T08:16:15;6.80;99.90
15355;DHT22;7777;52.254;9.618;2024-03-17T08:18:42;6.80;99.90
15355;DHT22;7777;52.254;9.618;2024-03-17T08:21:08;6.90;99.90
15355;DHT22;7777;52.254;9.618;2024-03-17T08:23:34;7.00;99.90
15355;DHT22;7777;52.254;9.618;2024-03-17T08:26:07;7.00;99.90
15355;DHT22;7777;52.254;9.618;2024-03-17T08:28:34;7.10;99.90
15355;DHT22;7777;52.254;9.618;2024-03-17T08:31:02;7.20;99.90
15355;DHT22;7777;52.254;9.618;2024-03-17T08:33:29;7.20;99.90
15355;DHT22;7777;52.254;9.618;2024-03-17T08:35:57;7.30;99.90
15355;DHT22;7777;52.254;9.618;2024-03-17T08:38:31;7.40;99.90
15355;DHT22;7777;52.254;9.618;2024-03-17T08:41:01;7.50;99.90
15355;DHT22;7777;52.254;9.618;2024-03-17T08:43:28;7.50;99.90
15355;DHT22;7777;52.254;9.618;2024-03-17T08:45:58;7.60;99.90
15355;DHT22;7777;52.254;9.618;2024-03-17T08:48:29;7.60;99.90
15355;DHT22;7777;52.254;9.618;2024-03-17T08:51:01;7.70;99.90
15355;DHT22;7777;52.254;9.618;2024-03-17T08:53:29;7.80;99.90
15355;DHT22;7777;52.254;9.618;2024-03-17T08:55:56;7.80;99.90
15355;DHT22;7777;52.254;9.618;2024-03-17T08:58:22;7.90;99.90
15355;DHT22;7777;52.254;9.618;2024-03-17T09:00:49;7.90;99.90
15355;DHT22;7777;52.254;9.618;2024-03-17T09:03:14;8.00;99.90
15355;DHT22;7777;52.254;9.618;2024-03-17T09:05:42;8.10;99.90
15355;DHT22;7777;52.254;9.618;2024-03-17T09:08:23;8.10;99.90
15355;DHT22;7777;52.254;9.618;2024-03-17T09:10:52;8.20;99.90
15355;DHT22;7777;52.254;9.618;2024-03-17T09:13:24;8.20;99.90
15355;DHT22;7777;52.254;9.618;2024-03-17T09:15:55;8.30;99.90
15355;DHT22;7777;52.254;9.618;2024-03-17T09:18:26;8.30;99.90
15355;DHT22;7777;52.254;9.618;2024-03-17T09:21:00;8.40;99.90
15355;DHT22;7777;52.254;9.618;2024-03-17T09:23:31;8.50;99.90
15355;DHT22;7777;52.254;9.618;2024-03-17T09:26:10;8.50;99.90
15355;DHT22;7777;52.254;9.618;2024-03-17T09:28:41;8.60;99.90
15355;DHT22;7777;52.254;9.618;2024-03-17T09:31:06;8.60;99.90
15355;DHT22;7777;52.254;9.618;2024-03-17T09:33:33;8.70;99.90
15355;DHT22;7777;52.254;9.618;2024-03-17T09:36:02;8.70;99.90
15355;DHT22;7777;52.254;9.618;2024-03-17T09:38:34;8.80;99.90
15355;DHT22;7777;52.254;9.618;2024-03-17T09:41:01;8.90;99.90
15355;DHT22;7777;52.254;9.618;2024-03-17T09:43:28;9.00;99.90
15355;DHT22;7777;52.254;9.618;2024-03-17T09:45:55;9.00;99.90
15355;DHT22;7777;52.254;9.618;2024-03-17T09:48:25;9.10;99.90
15355;DHT22;7777;52.254;9.618;2024-03-17T09:51:00;9.20;99.90
15355;DHT22;7777;52.254;9.618;2024-03-17T09:53:33;9.20;99.90
15355;DHT22;7777;52.254;9.618;2024-03-17T09:56:10;9.30;99.90
15355;DHT22;7777;52.254;9.618;2024-03-17T09:58:49;9.40;99.90
15355;DHT22;7777;52.254;9.618;2024-03-17T10:01:16;9.50;99.90
15355;DHT22;7777;52.254;9.618;2024-03-17T10:03:53;9.60;99.90
15355;DHT22;7777;52.254;9.618;2024-03-17T10:06:24;9.70;99.90
15355;DHT22;7777;52.254;9.618;2024-03-17T10:11:25;10.00;99.90
15355;DHT22;7777;52.254;9.618;2024-03-17T10:14:07;10.10;99.90
15355;DHT22;7777;52.254;9.618;2024-03-17T10:16:35;10.20;99.90
15355;DHT22;7777;52.254;9.618;2024-03-17T10:21:43;10.40;99.90
15355;DHT22;7777;52.254;9.618;2024-03-17T10:26:58;10.60;99.90
15355;DHT22;7777;52.254;9.618;2024-03-17T10:29:32;10.70;99.90
15355;DHT22;7777;52.254;9.618;2024-03-17T10:32:15;10.80;99.90
15355;DHT22;7777;52.254;9.618;2024-03-17T10:34:44;10.80;99.90
15355;DHT22;7777;52.254;9.618;2024-03-17T10:37:15;11.00;99.90
15355;DHT22;7777;52.254;9.618;2024-03-17T10:39:50;11.10;99.90
15355;DHT22;7777;52.254;9.618;2024-03-17T10:42:28;11.10;99.90
15355;DHT22;7777;52.254;9.618;2024-03-17T10:44:54;11.30;99.90
15355;DHT22;7777;52.254;9.618;2024-03-17T10:47:26;11.30;99.90
15355;DHT22;7777;52.254;9.618;2024-03-17T10:49:54;11.40;99.90
15355;DHT22;7777;52.254;9.618;2024-03-17T10:52:23;11.50;99.90
15355;DHT22;7777;52.254;9.618;2024-03-17T10:54:54;11.50;99.90
15355;DHT22;7777;52.254;9.618;2024-03-17T11:00:04;11.50;99.90
15355;DHT22;7777;52.254;9.618;2024-03-17T11:02:33;11.50;99.90
15355;DHT22;7777;52.254;9.618;2024-03-17T11:05:05;11.50;99.90
15355;DHT22;7777;52.254;9.618;2024-03-17T11:07:35;11.50;99.90
15355;DHT22;7777;52.254;9.618;2024-03-17T11:10:09;11.60;99.90
15355;DHT22;7777;52.254;9.618;2024-03-17T11:17:53;11.90;99.90
15355;DHT22;7777;52.254;9.618;2024-03-17T11:20:29;12.00;99.90
15355;DHT22;7777;52.254;9.618;2024-03-17T11:22:57;12.20;99.90
15355;DHT22;7777;52.254;9.618;2024-03-17T11:28:09;12.40;99.90
15355;DHT22;7777;52.254;9.618;2024-03-17T11:41:42;12.40;99.90
15355;DHT22;7777;52.254;9.618;2024-03-17T11:47:01;12.50;99.90
15355;DHT22;7777;52.254;9.618;2024-03-17T11:49:42;12.50;99.90
15355;DHT22;7777;52.254;9.618;2024-03-17T11:52:12;12.60;99.90
15355;DHT22;7777;52.254;9.618;2024-03-17T11:54:40;12.50;99.90
15355;DHT22;7777;52.254;9.618;2024-03-17T11:57:09;12.60;99.90
15355;DHT22;7777;52.254;9.618;2024-03-17T11:59:37;12.60;99.90
15355;DHT22;7777;52.254;9.618;2024-03-17T12:02:22;12.60;99.90
15355;DHT22;7777;52.254;9.618;2024-03-17T12:04:52;12.60;99.90
15355;DHT22;7777;52.254;9.618;2024-03-17T12:07:20;12.70;99.90
15355;DHT22;7777;52.254;9.618;2024-03-17T12:09:50;12.70;99.90
15355;DHT22;7777;52.254;9.618;2024-03-17T12:12:21;12.70;99.90
15355;DHT22;7777;52.254;9.618;2024-03-17T12:14:49;12.60;99.90
15355;DHT22;7777;52.254;9.618;2024-03-17T12:17:23;12.60;99.90
15355;DHT22;7777;52.254;9.618;2024-03-17T12:19:50;12.60;99.90
15355;DHT22;7777;52.254;9.618;2024-03-17T12:22:19;12.60;99.90
15355;DHT22;7777;52.254;9.618;2024-03-17T12:24:51;12.60;99.90
15355;DHT22;7777;52.254;9.618;2024-03-17T12:27:23;12.60;99.90
15355;DHT22;7777;52.254;9.618;2024-03-17T12:29:51;12.60;99.90
15355;DHT22;7777;52.254;9.618;2024-03-17T12:32:24;12.70;99.90
15355;DHT22;7777;52.254;9.618;2024-03-17T12:34:52;12.70;99.90
15355;DHT22;7777;52.254;9.618;2024-03-17T12:37:21;12.70;99.90
15355;DHT22;7777;52.254;9.618;2024-03-17T12:39:48;12.80;99.90
15355;DHT22;7777;52.254;9.618;2024-03-17T12:42:16;12.70;99.90
15355;DHT22;7777;52.254;9.618;2024-03-17T12:44:59;12.80;99.90
15355;DHT22;7777;52.254;9.618;2024-03-17T12:47:31;12.80;99.90
15355;DHT22;7777;52.254;9.618;2024-03-17T12:50:01;12.80;99.90
15355;DHT22;7777;52.254;9.618;2024-03-17T12:52:28;12.80;99.90
15355;DHT22;7777;52.254;9.618;2024-03-17T12:55:03;12.70;99.90
15355;DHT22;7777;52.254;9.618;2024-03-17T12:57:53;12.80;99.90
15355;DHT22;7777;52.254;9.618;2024-03-17T13:01:02;12.80;99.90
15355;DHT22;7777;52.254;9.618;2024-03-17T13:03:31;12.90;99.90
15355;DHT22;7777;52.254;9.618;2024-03-17T13:06:00;13.00;99.90
15355;DHT22;7777;52.254;9.618;2024-03-17T13:08:28;13.10;99.90
15355;DHT22;7777;52.254;9.618;2024-03-17T13:10:54;13.20;99.90
15355;DHT22;7777;52.254;9.618;2024-03-17T13:13:20;13.20;99.90
15355;DHT22;7777;52.254;9.618;2024-03-17T13:15:46;13.20;99.90
15355;DHT22;7777;52.254;9.618;2024-03-17T13:18:19;13.20;99.90
15355;DHT22;7777;52.254;9.618;2024-03-17T13:20:46;13.20;99.90
15355;DHT22;7777;52.254;9.618;2024-03-17T13:23:12;13.30;99.90
15355;DHT22;7777;52.254;9.618;2024-03-17T13:25:38;13.20;99.90
15355;DHT22;7777;52.254;9.618;2024-03-17T13:28:04;13.20;99.90
15355;DHT22;7777;52.254;9.618;2024-03-17T13:30:33;13.20;99.90
15355;DHT22;7777;52.254;9.618;2024-03-17T13:33:03;13.20;99.90
15355;DHT22;7777;52.254;9.618;2024-03-17T13:35:37;13.10;99.90
15355;DHT22;7777;52.254;9.618;2024-03-17T13:38:05;13.10;99.90
15355;DHT22;7777;52.254;9.618;2024-03-17T13:40:33;13.10;99.90
15355;DHT22;7777;52.254;9.618;2024-03-17T13:42:59;13.20;99.90
15355;DHT22;7777;52.254;9.618;2024-03-17T13:45:27;13.20;99.90
15355;DHT22;7777;52.254;9.618;2024-03-17T13:47:57;13.20;99.90
15355;DHT22;7777;52.254;9.618;2024-03-17T13:50:23;13.30;99.90
15355;DHT22;7777;52.254;9.618;2024-03-17T13:52:49;13.20;99.90
15355;DHT22;7777;52.254;9.618;2024-03-17T13:55:16;13.20;99.90
15355;DHT22;7777;52.254;9.618;2024-03-17T13:57:45;13.30;99.90
15355;DHT22;7777;52.254;9.618;2024-03-17T14:00:13;13.20;99.90
15355;DHT22;7777;52.254;9.618;2024-03-17T14:02:45;13.20;99.90
15355;DHT22;7777;52.254;9.618;2024-03-17T14:05:16;13.30;99.90
15355;DHT22;7777;52.254;9.618;2024-03-17T14:07:43;13.30;99.90
15355;DHT22;7777;52.254;9.618;2024-03-17T14:10:11;13.40;99.90
15355;DHT22;7777;52.254;9.618;2024-03-17T14:12:38;13.40;99.90
15355;DHT22;7777;52.254;9.618;2024-03-17T14:15:09;13.40;99.90
15355;DHT22;7777;52.254;9.618;2024-03-17T14:17:39;13.50;99.90
15355;DHT22;7777;52.254;9.618;2024-03-17T14:20:09;13.50;99.90
15355;DHT22;7777;52.254;9.618;2024-03-17T14:22:37;13.50;99.90
15355;DHT22;7777;52.254;9.618;2024-03-17T14:25:07;13.50;99.90
15355;DHT22;7777;52.254;9.618;2024-03-17T14:27:36;13.60;99.90
15355;DHT22;7777;52.254;9.618;2024-03-17T14:30:02;13.60;99.90
15355;DHT22;7777;52.254;9.618;2024-03-17T14:32:29;13.60;99.90
15355;DHT22;7777;52.254;9.618;2024-03-17T14:34:56;13.70;99.90
15355;DHT22;7777;52.254;9.618;2024-03-17T14:37:22;13.70;99.90
15355;DHT22;7777;52.254;9.618;2024-03-17T14:39:48;13.70;99.90
15355;DHT22;7777;52.254;9.618;2024-03-17T14:42:18;13.70;99.90
15355;DHT22;7777;52.254;9.618;2024-03-17T14:44:45;13.60;99.90
15355;DHT22;7777;52.254;9.618;2024-03-17T14:47:12;13.60;99.90
15355;DHT22;7777;52.254;9.618;2024-03-17T14:49:39;13.60;99.90
15355;DHT22;7777;52.254;9.618;2024-03-17T14:52:05;13.50;99.90
15355;DHT22;7777;52.254;9.618;2024-03-17T14:54:31;13.50;99.90
15355;DHT22;7777;52.254;9.618;2024-03-17T14:56:57;13.50;99.90
15355;DHT22;7777;52.254;9.618;2024-03-17T14:59:23;13.40;99.90
15355;DHT22;7777;52.254;9.618;2024-03-17T15:01:49;13.40;99.90
15355;DHT22;7777;52.254;9.618;2024-03-17T15:04:15;13.30;99.90
15355;DHT22;7777;52.254;9.618;2024-03-17T15:06:41;13.30;99.90
15355;DHT22;7777;52.254;9.618;2024-03-17T15:09:08;13.20;99.90
15355;DHT22;7777;52.254;9.618;2024-03-17T15:11:35;13.20;99.90
15355;DHT22;7777;52.254;9.618;2024-03-17T15:14:01;13.10;99.90
15355;DHT22;7777;52.254;9.618;2024-03-17T15:16:27;13.10;99.90
15355;DHT22;7777;52.254;9.618;2024-03-17T15:18:55;13.00;99.90
15355;DHT22;7777;52.254;9.618;2024-03-17T15:21:20;13.00;99.90
15355;DHT22;7777;52.254;9.618;2024-03-17T15:23:46;13.00;99.90
15355;DHT22;7777;52.254;9.618;2024-03-17T15:26:12;12.90;99.90
15355;DHT22;7777;52.254;9.618;2024-03-17T15:28:42;12.90;99.90
15355;DHT22;7777;52.254;9.618;2024-03-17T15:31:09;12.90;99.90
15355;DHT22;7777;52.254;9.618;2024-03-17T15:33:36;12.80;99.90
15355;DHT22;7777;52.254;9.618;2024-03-17T15:36:04;12.80;99.90
15355;DHT22;7777;52.254;9.618;2024-03-17T15:38:34;12.70;99.90
15355;DHT22;7777;52.254;9.618;2024-03-17T15:41:09;12.80;99.90
15355;DHT22;7777;52.254;9.618;2024-03-17T15:43:37;12.70;99.90
15355;DHT22;7777;52.254;9.618;2024-03-17T15:46:18;12.70;99.90
15355;DHT22;7777;52.254;9.618;2024-03-17T15:48:45;12.70;99.90
15355;DHT22;7777;52.254;9.618;2024-03-17T15:51:11;12.70;99.90
15355;DHT22;7777;52.254;9.618;2024-03-17T15:53:38;12.60;99.90
15355;DHT22;7777;52.254;9.618;2024-03-17T15:56:04;12.60;99.90
15355;DHT22;7777;52.254;9.618;2024-03-17T15:58:31;12.50;99.90
15355;DHT22;7777;52.254;9.618;2024-03-17T16:00:58;12.50;99.90
15355;DHT22;7777;52.254;9.618;2024-03-17T16:03:31;12.50;99.90
15355;DHT22;7777;52.254;9.618;2024-03-17T16:06:13;12.40;99.90
15355;DHT22;7777;52.254;9.618;2024-03-17T16:08:46;12.40;99.90
15355;DHT22;7777;52.254;9.618;2024-03-17T16:11:17;12.40;99.90
15355;DHT22;7777;52.254;9.618;2024-03-17T16:13:48;12.30;99.90
15355;DHT22;7777;52.254;9.618;2024-03-17T16:16:17;12.30;99.90
15355;DHT22;7777;52.254;9.618;2024-03-17T16:18:44;12.30;99.90
15355;DHT22;7777;52.254;9.618;2024-03-17T16:21:19;12.30;99.90
15355;DHT22;7777;52.254;9.618;2024-03-17T16:23:56;12.20;99.90
15355;DHT22;7777;52.254;9.618;2024-03-17T16:26:25;12.20;99.90
15355;DHT22;7777;52.254;9.618;2024-03-17T16:28:51;12.20;99.90
15355;DHT22;7777;52.254;9.618;2024-03-17T16:31:20;12.10;99.90
15355;DHT22;7777;52.254;9.618;2024-03-17T16:33:46;12.10;99.90
15355;DHT22;7777;52.254;9.618;2024-03-17T16:36:14;12.10;99.90
15355;DHT22;7777;52.254;9.618;2024-03-17T16:38:40;12.00;99.90